createdAt,value
2022-08-01T00:01:31.251Z,99959.98
2022-08-01T00:03:59.375Z,99962.60
2022-08-01T00:06:27.902Z,99964.92
2022-08-01T00:08:56.131Z,99962.88
2022-08-01T00:11:24.185Z,99965.89
2022-08-01T00:13:52.265Z,99961.02
2022-08-01T00:16:23.847Z,99956.25
2022-08-01T00:18:52.283Z,99951.34
2022-08-01T00:21:20.338Z,99950.52
2022-08-01T00:23:48.596Z,99948.30
2022-08-01T00:26:16.583Z,99949.73
2022-08-01T00:28:44.477Z,99947.77
2022-08-01T00:31:12.469Z,99945.80
2022-08-01T00:33:40.496Z,99949.64
2022-08-01T00:36:08.511Z,99942.79
2022-08-01T00:38:36.642Z,99940.70
2022-08-01T00:41:04.736Z,99940.95
2022-08-01T00:43:32.734Z,99936.75
2022-08-01T00:46:00.704Z,99941.20
2022-08-01T00:48:28.790Z,99937.99
2022-08-01T00:50:56.862Z,99939.29
2022-08-01T00:53:26.383Z,99935.27
2022-08-01T00:55:54.784Z,99939.92
2022-08-01T00:58:24.217Z,99939.92
2022-08-01T01:00:54.610Z,99947.31
2022-08-01T01:03:55.962Z,99944.48
2022-08-01T01:06:33.872Z,99944.30
2022-08-01T01:09:16.832Z,99944.02
2022-08-01T01:12:19.300Z,99942.59
2022-08-01T01:15:02.269Z,99939.05
2022-08-01T01:17:54.168Z,99941.81
2022-08-01T01:20:41.349Z,99943.50
2022-08-01T01:23:15.767Z,99941.63
2022-08-01T01:26:03.071Z,99942.84
2022-08-01T01:28:53.404Z,99939.70
2022-08-01T01:31:25.203Z,99943.96
2022-08-01T01:33:55.644Z,99940.36
2022-08-01T01:36:27.749Z,99937.92
2022-08-01T01:38:57.354Z,99934.59
2022-08-01T01:41:27.565Z,99939.23
2022-08-01T01:43:56.751Z,99935.57
2022-08-01T01:46:28.699Z,99935.42
2022-08-01T01:48:58.707Z,99937.59
2022-08-01T01:51:29.137Z,99931.45
2022-08-01T01:53:59.115Z,99933.38
2022-08-01T01:56:29.945Z,99933.01
2022-08-01T01:59:01.639Z,99934.98
2022-08-01T02:01:58.390Z,99936.48
2022-08-01T02:04:23.475Z,99935.11
2022-08-01T02:06:55.378Z,99938.38
2022-08-01T02:09:26.185Z,99933.85
2022-08-01T02:12:07.439Z,99934.55
2022-08-01T02:14:38.482Z,99931.04
2022-08-01T02:17:07.167Z,99929.61
2022-08-01T02:19:37.920Z,99927.56
2022-08-01T02:22:18.144Z,99924.61
2022-08-01T02:25:00.671Z,99930.07
2022-08-01T02:27:44.120Z,99932.10
2022-08-01T02:30:22.513Z,99933.93
2022-08-01T02:32:58.964Z,99936.36
2022-08-01T02:35:30.765Z,99934.96
2022-08-01T02:38:01.851Z,99934.74
2022-08-01T02:40:34.259Z,99936.79
2022-08-01T02:43:06.982Z,99940.57
2022-08-01T02:45:38.588Z,99942.46
2022-08-01T02:48:13.019Z,99942.29
2022-08-01T02:50:45.336Z,99940.36
2022-08-01T02:53:15.934Z,99943.39
2022-08-01T02:55:46.332Z,99945.96
2022-08-01T02:58:17.719Z,99945.29
2022-08-01T03:00:48.565Z,99945.86
2022-08-01T03:03:18.319Z,99946.02
2022-08-01T03:05:48.316Z,99948.77
2022-08-01T03:08:18.219Z,99948.05
2022-08-01T03:10:48.171Z,99947.94
2022-08-01T03:13:18.327Z,99951.19
2022-08-01T03:15:48.197Z,99951.11
2022-08-01T03:18:18.505Z,99954.64
2022-08-01T03:20:47.326Z,99950.42
2022-08-01T03:23:16.576Z,99951.23
2022-08-01T03:25:46.771Z,99948.03
2022-08-01T03:28:17.318Z,99944.45
2022-08-01T03:30:46.492Z,99943.31
2022-08-01T03:33:14.820Z,99942.67
2022-08-01T03:35:54.969Z,99942.85
2022-08-01T03:38:27.777Z,99950.86
2022-08-01T03:41:03.805Z,99956.29
2022-08-01T03:43:48.536Z,99958.95
2022-08-01T03:46:24.919Z,99962.14
2022-08-01T03:48:56.969Z,99964.21
2022-08-01T03:51:31.637Z,99968.27
2022-08-01T03:54:02.439Z,99971.21
2022-08-01T03:56:33.355Z,99969.63
2022-08-01T03:59:04.580Z,99977.11
2022-08-01T04:01:33.729Z,99978.46
2022-08-01T04:04:03.111Z,99977.04
2022-08-01T04:06:31.350Z,99978.73
2022-08-01T04:08:59.899Z,99981.11
2022-08-01T04:11:29.957Z,99989.09
2022-08-01T04:13:58.785Z,99988.33
2022-08-01T04:16:27.106Z,99991.31
2022-08-01T04:18:55.091Z,99994.63
2022-08-01T04:21:28.821Z,99996.09
2022-08-01T04:24:01.791Z,99996.17
2022-08-01T04:26:32.931Z,99997.70
2022-08-01T04:29:03.908Z,100000.72
2022-08-01T04:31:35.502Z,100002.20
2022-08-01T04:34:06.282Z,100002.88
2022-08-01T04:36:38.300Z,100001.64
2022-08-01T04:39:07.349Z,100004.34
2022-08-01T04:41:37.745Z,100005.77
2022-08-01T04:44:06.688Z,100008.67
2022-08-01T04:46:36.068Z,100011.32
2022-08-01T04:49:07.956Z,100006.55
2022-08-01T04:51:36.595Z,100006.52
2022-08-01T04:54:05.339Z,100006.09
2022-08-01T04:56:35.885Z,100009.29
2022-08-01T04:59:22.372Z,100010.75
2022-08-01T05:01:51.741Z,100013.96
2022-08-01T05:04:19.942Z,100015.97
2022-08-01T05:06:47.920Z,100018.86
2022-08-01T05:09:16.199Z,100020.26
2022-08-01T05:11:44.357Z,100022.05
2022-08-01T05:14:12.436Z,100018.43
2022-08-01T05:16:40.527Z,100018.16
2022-08-01T05:19:09.410Z,100026.77
2022-08-01T05:21:37.536Z,100026.63
2022-08-01T05:24:06.609Z,100031.61
2022-08-01T05:26:34.736Z,100032.27
2022-08-01T05:29:04.509Z,100032.84
2022-08-01T05:31:35.410Z,100037.29
2022-08-01T05:34:03.706Z,100035.54
2022-08-01T05:36:31.772Z,100039.50
2022-08-01T05:38:59.796Z,100037.96
2022-08-01T05:41:27.836Z,100041.55
2022-08-01T05:43:55.753Z,100042.55
2022-08-01T05:46:23.819Z,100042.52
2022-08-01T05:48:55.823Z,100041.84
2022-08-01T05:51:23.850Z,100048.42
2022-08-01T05:53:52.365Z,100045.42
2022-08-01T05:56:21.946Z,100046.15
2022-08-01T05:58:51.742Z,100053.29
2022-08-01T06:01:20.141Z,100056.66
2022-08-01T06:03:48.085Z,100065.73
2022-08-01T06:06:16.285Z,100066.52
2022-08-01T06:08:44.328Z,100068.34
2022-08-01T06:11:13.379Z,100065.09
2022-08-01T06:13:48.430Z,100065.32
2022-08-01T06:16:17.684Z,100064.36
2022-08-01T06:18:45.617Z,100064.96
2022-08-01T06:21:13.730Z,100062.73
2022-08-01T06:23:43.988Z,100063.14
2022-08-01T06:26:12.622Z,100066.30
2022-08-01T06:28:41.103Z,100067.30
2022-08-01T06:31:11.071Z,100066.07
2022-08-01T06:33:39.199Z,100067.81
2022-08-01T06:36:07.291Z,100071.63
2022-08-01T06:38:35.279Z,100070.39
2022-08-01T06:41:03.585Z,100072.21
2022-08-01T06:43:32.532Z,100075.60
2022-08-01T06:46:00.523Z,100072.83
2022-08-01T06:48:28.609Z,100084.38
2022-08-01T06:51:09.245Z,100081.15
2022-08-01T06:53:39.085Z,100080.83
2022-08-01T06:56:10.057Z,100074.69
2022-08-01T06:58:38.208Z,100076.17
2022-08-01T07:01:09.505Z,100075.81
2022-08-01T07:03:53.904Z,100077.49
2022-08-01T07:06:24.970Z,100079.69
2022-08-01T07:08:53.924Z,100082.48
2022-08-01T07:11:23.444Z,100081.09
2022-08-01T07:13:51.814Z,100077.58
2022-08-01T07:16:20.207Z,100078.83
2022-08-01T07:18:48.397Z,100080.34
2022-08-01T07:21:40.019Z,100075.96
2022-08-01T07:24:13.189Z,100074.39
2022-08-01T07:26:52.474Z,100073.64
2022-08-01T07:29:26.616Z,100075.89
2022-08-01T07:31:57.267Z,100074.37
2022-08-01T07:34:26.293Z,100075.43
2022-08-01T07:36:55.160Z,100073.45
2022-08-01T07:39:23.820Z,100070.69
2022-08-01T07:42:06.364Z,100071.48
2022-08-01T07:44:36.932Z,100074.37
2022-08-01T07:47:06.917Z,100074.77
2022-08-01T07:49:39.886Z,100074.98
2022-08-01T07:52:09.508Z,100076.80
2022-08-01T07:54:37.907Z,100076.55
2022-08-01T07:57:05.966Z,100073.25
2022-08-01T07:59:34.825Z,100072.27
2022-08-01T08:02:02.990Z,100072.88
2022-08-01T08:04:31.324Z,100073.79
2022-08-01T08:06:59.359Z,100075.17
2022-08-01T08:09:27.460Z,100076.36
2022-08-01T08:11:55.309Z,100075.65
2022-08-01T08:14:32.523Z,100077.59
2022-08-01T08:17:02.018Z,100077.33
2022-08-01T08:19:37.266Z,100076.55
2022-08-01T08:22:09.122Z,100081.78
2022-08-01T08:24:45.528Z,100088.79
2022-08-01T08:27:16.124Z,100086.14
2022-08-01T08:29:45.057Z,100091.11
2022-08-01T08:32:13.749Z,100087.96
2022-08-01T08:34:41.948Z,100086.88
2022-08-01T08:37:10.140Z,100087.46
2022-08-01T08:39:41.181Z,100086.40
2022-08-01T08:42:11.973Z,100091.85
2022-08-01T08:44:43.318Z,100098.42
2022-08-01T08:47:19.300Z,100099.45
2022-08-01T08:49:50.385Z,100104.09
2022-08-01T08:52:20.931Z,100104.65
2022-08-01T08:54:50.764Z,100105.45
2022-08-01T08:57:22.070Z,100109.44
2022-08-01T08:59:53.260Z,100109.05
2022-08-01T09:02:21.943Z,100108.27
2022-08-01T09:04:52.070Z,100110.84
2022-08-01T09:07:20.145Z,100114.84
2022-08-01T09:09:51.373Z,100113.54
2022-08-01T09:12:21.587Z,100116.38
2022-08-01T09:14:51.515Z,100118.73
2022-08-01T09:17:19.744Z,100125.14
2022-08-01T09:19:59.426Z,100125.05
2022-08-01T09:22:34.850Z,100125.55
2022-08-01T09:25:10.485Z,100128.12
2022-08-01T09:27:44.116Z,100128.73
2022-08-01T09:30:23.853Z,100126.87
2022-08-01T09:32:56.202Z,100127.92
2022-08-01T09:35:30.239Z,100131.30
2022-08-01T09:38:23.607Z,100131.56
2022-08-01T09:41:00.205Z,100133.98
2022-08-01T09:43:32.796Z,100135.06
2022-08-01T09:46:12.512Z,100133.94
2022-08-01T09:49:07.570Z,100137.02
2022-08-01T09:52:11.196Z,100132.36
2022-08-01T09:54:47.421Z,100135.33
2022-08-01T09:57:19.009Z,100139.64
2022-08-01T10:00:00.623Z,100137.42
2022-08-01T10:02:39.561Z,100131.00
2022-08-01T10:05:10.641Z,100126.51
2022-08-01T10:08:01.661Z,100128.21
2022-08-01T10:10:37.532Z,100128.90
2022-08-01T10:13:06.534Z,100130.54
2022-08-01T10:15:39.098Z,100129.04
2022-08-01T10:18:16.486Z,100134.02
2022-08-01T10:20:56.574Z,100127.61
2022-08-01T10:23:40.799Z,100130.92
2022-08-01T10:26:13.293Z,100124.80
2022-08-01T10:28:46.316Z,100125.37
2022-08-01T10:31:14.986Z,100126.60
2022-08-01T10:33:51.822Z,100122.83
2022-08-01T10:36:25.495Z,100133.39
2022-08-01T10:38:57.119Z,100131.02
2022-08-01T10:41:27.608Z,100130.97
2022-08-01T10:43:57.011Z,100128.50
2022-08-01T10:46:26.151Z,100129.77
2022-08-01T10:49:04.636Z,100133.75
2022-08-01T10:51:52.357Z,100134.52
2022-08-01T10:54:27.097Z,100126.20
2022-08-01T10:57:07.003Z,100128.15
2022-08-01T10:59:59.429Z,100127.86
2022-08-01T11:02:35.702Z,100131.78
2022-08-01T11:05:21.072Z,100126.53
2022-08-01T11:08:07.403Z,100123.35
2022-08-01T11:10:51.180Z,100118.44
2022-08-01T11:13:59.337Z,100114.45
2022-08-01T11:16:33.265Z,100122.91
2022-08-01T11:19:07.371Z,100121.16
2022-08-01T11:21:57.880Z,100117.27
2022-08-01T11:24:50.683Z,100116.61
2022-08-01T11:27:20.676Z,100115.70
2022-08-01T11:30:13.162Z,100113.90
2022-08-01T11:33:12.802Z,100117.63
2022-08-01T11:36:48.732Z,100118.44
2022-08-01T11:39:14.269Z,100114.39
2022-08-01T11:41:45.106Z,100119.11
2022-08-01T11:44:20.966Z,100117.65
2022-08-01T11:47:08.919Z,100121.81
2022-08-01T11:49:39.012Z,100115.83
2022-08-01T11:52:10.845Z,100114.63
2022-08-01T11:54:46.710Z,100107.59
2022-08-01T11:57:23.291Z,100112.08
2022-08-01T12:00:03.401Z,100114.30
2022-08-01T12:02:37.694Z,100115.09
2022-08-01T12:05:15.830Z,100117.96
2022-08-01T12:07:46.666Z,100114.29
2022-08-01T12:10:17.688Z,100113.95
2022-08-01T12:12:50.295Z,100110.33
2022-08-01T12:15:20.558Z,100109.86
2022-08-01T12:18:16.630Z,100115.27
2022-08-01T12:20:56.702Z,100112.84
2022-08-01T12:23:25.381Z,100106.02
2022-08-01T12:25:54.298Z,100107.04
2022-08-01T12:28:23.991Z,100107.41
2022-08-01T12:30:52.945Z,100102.36
2022-08-01T12:33:22.293Z,100107.42
2022-08-01T12:35:50.471Z,100104.60
2022-08-01T12:38:23.518Z,100099.66
2022-08-01T12:40:53.513Z,100102.91
2022-08-01T12:43:29.205Z,100103.00
2022-08-01T12:46:01.889Z,100104.20
2022-08-01T12:48:33.091Z,100106.80
2022-08-01T12:51:03.665Z,100106.48
2022-08-01T12:53:39.836Z,100104.23
2022-08-01T12:56:13.972Z,100104.98
2022-08-01T12:58:41.974Z,100097.41
2022-08-01T13:01:12.624Z,100096.90
2022-08-01T13:03:41.255Z,100095.78
2022-08-01T13:06:18.061Z,100094.46
2022-08-01T13:08:47.242Z,100096.52
2022-08-01T13:11:17.826Z,100088.44
2022-08-01T13:13:50.538Z,100084.89
2022-08-01T13:16:30.570Z,100087.11
2022-08-01T13:19:07.396Z,100083.73
2022-08-01T13:21:53.821Z,100089.64
2022-08-01T13:24:30.577Z,100088.33
2022-08-01T13:27:01.877Z,100080.21
2022-08-01T13:29:30.610Z,100075.91
2022-08-01T13:32:00.143Z,100074.27
2022-08-01T13:34:36.539Z,100069.50
2022-08-01T13:37:04.658Z,100070.56
2022-08-01T13:39:41.816Z,100068.81
2022-08-01T13:42:10.859Z,100074.45
2022-08-01T13:44:46.743Z,100074.36
2022-08-01T13:47:15.150Z,100071.23
2022-08-01T13:49:43.713Z,100074.71
2022-08-01T13:52:11.742Z,100072.23
2022-08-01T13:54:39.739Z,100075.14
2022-08-01T13:57:08.291Z,100079.14
2022-08-01T13:59:36.541Z,100079.30
2022-08-01T14:02:05.144Z,100084.89
2022-08-01T14:04:33.706Z,100084.27
2022-08-01T14:07:04.226Z,100079.66
2022-08-01T14:09:35.658Z,100078.55
2022-08-01T14:12:13.894Z,100084.77
2022-08-01T14:14:42.069Z,100087.06
2022-08-01T14:17:11.462Z,100091.45
2022-08-01T14:19:43.385Z,100089.98
2022-08-01T14:22:14.315Z,100083.30
2022-08-01T14:24:42.850Z,100084.77
2022-08-01T14:27:11.314Z,100089.39
2022-08-01T14:30:02.819Z,100092.60
2022-08-01T14:32:28.795Z,100099.63
2022-08-01T14:34:58.042Z,100094.80
2022-08-01T14:37:28.943Z,100096.30
2022-08-01T14:40:00.225Z,100097.32
2022-08-01T14:42:28.519Z,100100.45
2022-08-01T14:44:56.745Z,100104.19
2022-08-01T14:47:24.951Z,100101.06
2022-08-01T14:49:53.446Z,100096.98
2022-08-01T14:52:21.527Z,100098.23
2022-08-01T14:54:49.520Z,100097.98
2022-08-01T14:57:20.418Z,100090.15
2022-08-01T14:59:48.615Z,100085.85
2022-08-01T15:02:25.619Z,100091.15
2022-08-01T15:04:55.309Z,100089.23
2022-08-01T15:07:25.996Z,100087.42
2022-08-01T15:09:54.335Z,100083.42
2022-08-01T15:12:22.447Z,100086.30
2022-08-01T15:14:51.609Z,100085.23
2022-08-01T15:17:25.706Z,100088.51
2022-08-01T15:19:56.198Z,100089.42
2022-08-01T15:22:25.580Z,100087.05
2022-08-01T15:24:57.499Z,100090.77
2022-08-01T15:27:27.099Z,100092.61
2022-08-01T15:29:57.464Z,100091.48
2022-08-01T15:32:26.568Z,100091.89
2022-08-01T15:38:36.550Z,100088.28
2022-08-01T15:41:04.940Z,100089.29
2022-08-01T15:43:44.174Z,100097.33
2022-08-01T15:46:15.777Z,100100.96
2022-08-01T15:48:44.416Z,100097.89
2022-08-01T15:51:12.965Z,100095.81
2022-08-01T15:53:42.422Z,100095.98
2022-08-01T15:56:11.151Z,100090.92
2022-08-01T15:58:40.102Z,100090.27
2022-08-01T16:01:08.496Z,100097.30
2022-08-01T16:03:37.226Z,100097.96
2022-08-01T16:06:08.505Z,100092.55
2022-08-01T16:08:40.035Z,100092.96
2022-08-01T16:11:08.841Z,100087.63
2022-08-01T16:13:37.255Z,100086.83
2022-08-01T16:16:12.585Z,100084.15
2022-08-01T16:18:41.030Z,100083.52
2022-08-01T16:21:11.842Z,100081.96
2022-08-01T16:23:42.033Z,100080.86
2022-08-01T16:26:25.944Z,100081.96
2022-08-01T16:28:58.234Z,100083.62
2022-08-01T16:31:36.175Z,100086.95
2022-08-01T16:34:15.430Z,100085.08
2022-08-01T16:36:43.559Z,100082.14
2022-08-01T16:39:11.579Z,100086.61
2022-08-01T16:41:40.495Z,100082.61
2022-08-01T16:44:08.817Z,100082.15
2022-08-01T16:46:37.850Z,100081.45
2022-08-01T16:49:07.121Z,100081.06
2022-08-01T16:51:47.691Z,100079.53
2022-08-01T16:54:25.512Z,100082.52
2022-08-01T16:56:57.928Z,100085.05
2022-08-01T16:59:45.331Z,100083.65
2022-08-01T17:02:14.827Z,100080.79
2022-08-01T17:04:42.937Z,100082.71
2022-08-01T17:07:11.138Z,100085.70
2022-08-01T17:09:43.312Z,100086.08
2022-08-01T17:12:18.778Z,100087.20
2022-08-01T17:14:51.431Z,100084.52
2022-08-01T17:17:20.302Z,100087.02
2022-08-01T17:19:49.564Z,100089.16
2022-08-01T17:22:18.317Z,100093.00
2022-08-01T17:24:46.470Z,100093.20
2022-08-01T17:27:15.023Z,100096.73
2022-08-01T17:29:44.617Z,100093.86
2022-08-01T17:32:13.563Z,100094.52
2022-08-01T17:34:43.006Z,100095.14
2022-08-01T17:37:11.722Z,100094.51
2022-08-01T17:39:40.265Z,100096.29
2022-08-01T17:42:11.077Z,100095.74
2022-08-01T17:44:39.569Z,100097.14
2022-08-01T17:47:10.393Z,100095.00
2022-08-01T17:49:55.818Z,100100.62
2022-08-01T17:52:26.193Z,100101.08
2022-08-01T17:54:59.401Z,100104.75
2022-08-01T17:57:28.795Z,100107.14
2022-08-01T17:59:58.115Z,100105.85
2022-08-01T18:02:27.095Z,100110.38
2022-08-01T18:04:55.435Z,100113.61
2022-08-01T18:08:01.374Z,100115.59
2022-08-01T18:10:12.065Z,100114.48
2022-08-01T18:12:40.306Z,100113.14
2022-08-01T18:15:09.016Z,100114.73
2022-08-01T18:17:37.595Z,100113.33
2022-08-01T18:20:06.510Z,100109.15
2022-08-01T18:22:34.535Z,100112.27
2022-08-01T18:25:08.480Z,100112.98
2022-08-01T18:28:16.276Z,100115.14
2022-08-01T18:30:25.555Z,100116.98
2022-08-01T18:32:55.112Z,100113.52
2022-08-01T18:35:26.739Z,100116.21
2022-08-01T18:38:13.472Z,100120.96
2022-08-01T18:40:41.832Z,100122.84
2022-08-01T18:43:09.835Z,100124.36
2022-08-01T18:45:42.541Z,100128.20
2022-08-01T18:48:12.048Z,100131.63
2022-08-01T18:50:40.176Z,100130.19
2022-08-01T18:53:08.189Z,100133.38
2022-08-01T18:55:36.155Z,100135.95
2022-08-01T18:58:04.875Z,100137.67
2022-08-01T19:00:32.863Z,100138.89
2022-08-01T19:03:00.947Z,100139.56
2022-08-01T19:05:29.010Z,100136.98
2022-08-01T19:08:06.299Z,100140.34
2022-08-01T19:10:42.976Z,100141.52
2022-08-01T19:13:12.016Z,100144.02
2022-08-01T19:15:40.216Z,100145.14
2022-08-01T19:18:09.715Z,100151.54
2022-08-01T19:20:39.064Z,100152.27
2022-08-01T19:23:26.045Z,100151.61
2022-08-01T19:25:57.257Z,100155.54
2022-08-01T19:28:26.366Z,100156.16
2022-08-01T19:30:56.005Z,100156.89
2022-08-01T19:33:24.915Z,100159.60
2022-08-01T19:35:53.862Z,100159.73
2022-08-01T19:38:22.783Z,100160.74
2022-08-01T19:40:51.580Z,100161.56
2022-08-01T19:43:21.740Z,100162.05
2022-08-01T19:45:51.491Z,100165.13
2022-08-01T19:48:20.063Z,100163.69
2022-08-01T19:50:50.486Z,100163.80
2022-08-01T19:53:24.502Z,100162.61
2022-08-01T19:55:53.732Z,100156.35
2022-08-01T19:58:27.374Z,100157.09
2022-08-01T20:00:56.322Z,100156.13
2022-08-01T20:03:25.696Z,100157.58
2022-08-01T20:05:54.720Z,100159.80
2022-08-01T20:08:25.036Z,100157.91
2022-08-01T20:10:53.258Z,100162.52
2022-08-01T20:13:21.776Z,100160.33
2022-08-01T20:15:51.815Z,100165.94
2022-08-01T20:18:19.981Z,100166.39
2022-08-01T20:20:49.826Z,100164.10
2022-08-01T20:23:21.008Z,100166.15
2022-08-01T20:25:51.492Z,100165.35
2022-08-01T20:28:24.096Z,100169.38
2022-08-01T20:30:55.878Z,100169.73
2022-08-01T20:33:24.166Z,100172.92
2022-08-01T20:35:55.305Z,100171.80
2022-08-01T20:38:27.806Z,100170.97
2022-08-01T20:41:02.539Z,100171.91
2022-08-01T20:43:31.395Z,100169.52
2022-08-01T20:46:00.301Z,100169.00
2022-08-01T20:48:32.336Z,100166.59
2022-08-01T20:51:17.585Z,100166.83
2022-08-01T20:53:49.658Z,100164.16
2022-08-01T20:56:51.395Z,100166.60
2022-08-01T20:59:56.664Z,100166.96
2022-08-01T21:02:52.381Z,100169.73
2022-08-01T21:05:38.017Z,100174.75
2022-08-01T21:08:22.977Z,100173.00
2022-08-01T21:10:58.096Z,100174.30
2022-08-01T21:13:41.975Z,100177.02
2022-08-01T21:16:22.791Z,100180.20
2022-08-01T21:19:20.842Z,100178.86
2022-08-01T21:22:11.326Z,100181.44
2022-08-01T21:24:58.083Z,100182.69
2022-08-01T21:27:33.578Z,100185.10
2022-08-01T21:30:06.196Z,100182.07
2022-08-01T21:32:43.360Z,100181.54
2022-08-01T21:35:16.493Z,100185.90
2022-08-01T21:37:52.351Z,100184.45
2022-08-01T21:40:23.545Z,100186.41
2022-08-01T21:42:54.969Z,100186.58
2022-08-01T21:45:26.110Z,100185.93
2022-08-01T21:47:56.403Z,100189.50
2022-08-01T21:50:25.518Z,100190.91
2022-08-01T21:53:31.873Z,100187.59
2022-08-01T21:56:28.857Z,100188.14
2022-08-01T21:59:15.456Z,100184.54
2022-08-01T22:01:55.283Z,100185.73
2022-08-01T22:04:42.058Z,100186.37
2022-08-01T22:07:15.077Z,100182.48
2022-08-01T22:09:54.087Z,100184.15
2022-08-01T22:12:22.293Z,100181.48
2022-08-01T22:14:56.317Z,100183.36
2022-08-01T22:17:25.126Z,100186.79
2022-08-01T22:19:55.519Z,100183.41
2022-08-01T22:22:51.473Z,100182.61
2022-08-01T22:25:22.969Z,100183.13
2022-08-01T22:28:07.912Z,100187.89
2022-08-01T22:30:42.332Z,100186.88
2022-08-01T22:33:16.335Z,100189.23
2022-08-01T22:35:48.531Z,100190.96
2022-08-01T22:38:21.241Z,100197.59
2022-08-01T22:40:54.649Z,100201.35
2022-08-01T22:43:31.222Z,100197.77
2022-08-01T22:46:18.002Z,100203.63
2022-08-01T22:49:11.938Z,100206.48
2022-08-01T22:51:54.414Z,100207.73
2022-08-01T22:54:41.366Z,100205.78
2022-08-01T22:57:24.703Z,100203.26
2022-08-01T23:00:01.405Z,100202.64
2022-08-01T23:02:31.836Z,100203.12
2022-08-01T23:05:06.627Z,100200.80
2022-08-01T23:07:40.058Z,100204.64
2022-08-01T23:10:08.920Z,100207.09
2022-08-01T23:12:37.253Z,100204.88
2022-08-01T23:15:05.965Z,100208.48
2022-08-01T23:17:35.329Z,100208.80
2022-08-01T23:20:07.013Z,100203.54
2022-08-01T23:22:36.668Z,100205.19
2022-08-01T23:25:12.120Z,100206.88
2022-08-01T23:27:51.205Z,100207.29
2022-08-01T23:30:33.339Z,100207.61
2022-08-01T23:33:01.947Z,100208.77
2022-08-01T23:35:30.758Z,100205.80
2022-08-01T23:38:03.292Z,100205.07
2022-08-01T23:40:33.494Z,100204.81
2022-08-01T23:43:03.962Z,100205.15
2022-08-01T23:46:02.739Z,100202.30
2022-08-01T23:48:20.608Z,100205.23
2022-08-01T23:50:48.689Z,100207.70
2022-08-01T23:53:16.756Z,100206.63
2022-08-01T23:55:44.766Z,100208.80
2022-08-01T23:58:12.853Z,100210.16
